Molalla, OR

6:04 AM PST on March 02, 2015 (GMT -0800)
Russellville Hill- | Change Station
CLOSE
Current Station
Personal Weather Station
Location: Molalla, OR
Elevation: 1500 ft
Nearby Weather Stations

Elev 1500 ft 45.06 °N, 122.53 °W | Updated 4 minutes ago

Overcast
Overcast
36.9 °F
Feels Like 37 °F
N
0.0
Wind Variable Wind from SSE
Gusts 0.0 mph

Today
High -- | Low -- °F
--% Chance of Precip.
Yesterday
High -- | Low -- °F
Precip. -- in
6:46 AM 5:58 PM
Waxing Gibbous, 91% visible
Pressure 29.95 in
Visibility 10.0 miles
Clouds Few 1200 ft
Few 5000 ft
Scattered Clouds 9000 ft
Windchill 37 °F
Dew Point 33 °F
Humidity 87%
Rainfall 0.00 in
Snow Depth Not available.
UV 0 out of 12
Pollen 4.00 out of 12
Air Quality Not available.
Flu Activity Not available.
METAR KUAO 021353Z AUTO 00000KT 10SM FEW012 FEW050 SCT090 04/04 A2995 RMK AO2 SLP142 T00440039

More Conditions Fewer Conditions

Pressure 29.95 in
Visibility 10.0 miles
Clouds Few 1200 ft
Few 5000 ft
Scattered Clouds 9000 ft
Windchill 37 °F
Dew Point 33 °F
Humidity 87%
Rainfall 0.00 in
Snow Depth Not available.
UV 0 out of 12
Pollen 4.00 out of 12
Air Quality Not available.
Flu Activity Not available.
METAR KUAO 021353Z AUTO 00000KT 10SM FEW012 FEW050 SCT090 04/04 A2995 RMK AO2 SLP142 T00440039

More Conditions Fewer Conditions

10-Day Weather Forecast

Almanac

Astronomy

Mar. 02, 2015 Rise Set
Actual Time
Civil Twilight
Nautical Twilight
Astronomical Twilight
Moon
Length of Visible Light
Length of Day
Tomorrow will be .
, % of the Moon is Illuminated

Today's Extremes

State Highs State Lows

Community

WunderPhotos

Upload Photos

1,801,784 photos uploaded!

WunderBlogs® & News

Nearby

Air Quality

  Air Quality AQ Index Pollutant
Not available.

Snow Depth

Station Depth Elevation

Earthquake Activity

City Distance Mag. Time & Date
Minimum magnitude displayed is 2.5.

Coastal Water Temperatures

Place Temperature

Nearby Weather Stations